createdAt,value
2017-06-14T00:00:12.615Z,81.48
2017-06-14T00:00:54.216Z,81.48
2017-06-14T00:01:34.783Z,81.58
2017-06-14T00:02:15.436Z,81.58
2017-06-14T00:02:56.116Z,81.44
2017-06-14T00:03:36.747Z,81.58
2017-06-14T00:04:18.425Z,81.48
2017-06-14T00:05:00.098Z,81.48
2017-06-14T00:05:40.751Z,81.58
2017-06-14T00:06:21.408Z,81.58
2017-06-14T00:07:02.041Z,82.06
2017-06-14T00:07:42.727Z,81.92
2017-06-14T00:08:23.368Z,81.86
2017-06-14T00:09:04.022Z,81.96
2017-06-14T00:09:46.603Z,81.92
2017-06-14T00:10:31.882Z,81.77
2017-06-14T00:11:14.491Z,81.86
2017-06-14T00:11:55.109Z,82.01
2017-06-14T00:12:37.754Z,81.82
2017-06-14T00:13:18.373Z,82.01
2017-06-14T00:13:58.916Z,82.01
2017-06-14T00:14:46.354Z,82.06
2017-06-14T00:15:26.941Z,81.92
2017-06-14T00:16:08.548Z,81.82
2017-06-14T00:16:49.166Z,81.82
2017-06-14T00:17:31.818Z,81.82
2017-06-14T00:18:12.469Z,81.73
2017-06-14T00:19:08.805Z,81.73
2017-06-14T00:19:49.453Z,82.01
2017-06-14T00:20:34.805Z,81.92
2017-06-14T00:21:15.454Z,82.11
2017-06-14T00:21:57.057Z,82.11
2017-06-14T00:22:42.649Z,82.2
2017-06-14T00:23:23.242Z,81.82
2017-06-14T00:24:03.825Z,81.82
2017-06-14T00:24:49.268Z,81.92
2017-06-14T00:25:29.878Z,81.92
2017-06-14T00:26:10.452Z,82.11
2017-06-14T00:26:51.005Z,82.3
2017-06-14T00:27:31.703Z,82.11
2017-06-14T00:28:13.376Z,82.11
2017-06-14T00:28:54.006Z,81.82
2017-06-14T00:29:34.669Z,82.59
2017-06-14T00:30:15.312Z,82.68
2017-06-14T00:30:55.972Z,82.68
2017-06-14T00:31:36.610Z,82.49
2017-06-14T00:32:21.811Z,82.3
2017-06-14T00:33:02.428Z,82.3
2017-06-14T00:33:44.006Z,82.3
2017-06-14T00:34:24.673Z,82.2
2017-06-14T00:35:07.254Z,82.3
2017-06-14T00:35:52.831Z,82.4
2017-06-14T00:36:34.400Z,82.2
2017-06-14T00:37:15.056Z,82.2
2017-06-14T00:38:00.670Z,82.4
2017-06-14T00:38:41.272Z,82.4
2017-06-14T00:39:21.825Z,82.4
2017-06-14T00:40:03.542Z,82.49
2017-06-14T00:40:45.125Z,82.49
2017-06-14T00:41:25.711Z,82.49
2017-06-14T00:42:06.284Z,82.11
2017-06-14T00:42:46.931Z,82.4
2017-06-14T00:43:27.541Z,82.01
2017-06-14T00:44:13.030Z,82.2
2017-06-14T00:44:53.597Z,82.68
2017-06-14T00:45:36.069Z,82.64
2017-06-14T00:46:16.705Z,82.97
2017-06-14T00:46:57.291Z,83.21
2017-06-14T00:47:37.946Z,83.06
2017-06-14T00:48:18.599Z,82.92
2017-06-14T00:49:01.201Z,83.21
2017-06-14T00:49:41.855Z,83.06
2017-06-14T00:50:33.970Z,83.06
2017-06-14T00:51:15.649Z,83.12
2017-06-14T00:51:56.299Z,83.12
2017-06-14T00:52:36.860Z,83.12
2017-06-14T00:53:17.530Z,82.83
2017-06-14T00:53:58.218Z,82.92
2017-06-14T00:54:38.811Z,82.64
2017-06-14T00:55:19.404Z,82.83
2017-06-14T00:56:01.043Z,82.92
2017-06-14T00:56:53.630Z,83.12
2017-06-14T00:57:34.228Z,83.12
2017-06-14T00:58:14.871Z,83.12
2017-06-14T00:58:57.482Z,83.4
2017-06-14T00:59:38.123Z,82.73
2017-06-14T01:00:19.806Z,82.73
2017-06-14T01:01:05.072Z,83.12
2017-06-14T01:01:46.740Z,83.31
2017-06-14T01:02:27.314Z,83.02
2017-06-14T01:03:07.967Z,83.12
2017-06-14T01:03:48.548Z,83.69
2017-06-14T01:04:29.157Z,83.69
2017-06-14T01:05:09.710Z,83.31
2017-06-14T01:05:50.362Z,83.4
2017-06-14T01:06:30.970Z,83.69
2017-06-14T01:07:13.610Z,83.5
2017-06-14T01:07:54.169Z,83.78
2017-06-14T01:08:35.855Z,83.02
2017-06-14T01:09:17.554Z,83.59
2017-06-14T01:09:58.197Z,83.59
2017-06-14T01:10:38.849Z,83.59
2017-06-14T01:11:19.487Z,83.4
2017-06-14T01:12:06.815Z,83.4
2017-06-14T01:12:47.460Z,83.4
2017-06-14T01:13:29.139Z,83.5
2017-06-14T01:14:09.793Z,83.4
2017-06-14T01:14:50.447Z,83.59
2017-06-14T01:15:31.155Z,83.5
2017-06-14T01:16:16.351Z,83.5
2017-06-14T01:16:56.994Z,83.4
2017-06-14T01:17:38.701Z,83.5
2017-06-14T01:18:21.401Z,83.4
2017-06-14T01:19:02.043Z,83.4
2017-06-14T01:19:44.640Z,83.4
2017-06-14T01:20:25.294Z,83.5
2017-06-14T01:21:08.004Z,83.4
2017-06-14T01:21:48.633Z,83.4
2017-06-14T01:22:30.257Z,83.4
2017-06-14T01:23:10.963Z,83.4
2017-06-14T01:23:52.086Z,83.36
2017-06-14T01:24:33.717Z,83.36
2017-06-14T01:25:15.325Z,83.4
2017-06-14T01:25:55.926Z,83.5
2017-06-14T01:26:36.496Z,83.4
2017-06-14T01:27:19.097Z,83.59
2017-06-14T01:27:59.675Z,83.31
2017-06-14T01:28:40.265Z,83.31
2017-06-14T01:29:20.837Z,83.36
2017-06-14T01:30:01.500Z,83.36
2017-06-14T01:30:42.087Z,83.36
2017-06-14T01:31:27.493Z,83.36
2017-06-14T01:32:08.067Z,83.07
2017-06-14T01:32:48.698Z,83.17
2017-06-14T01:33:29.355Z,83.65
2017-06-14T01:34:10.948Z,83.78
2017-06-14T01:34:52.611Z,83.74
2017-06-14T01:35:33.277Z,84.12
2017-06-14T01:36:13.932Z,83.74
2017-06-14T01:36:55.584Z,83.93
2017-06-14T01:37:36.262Z,83.93
2017-06-14T01:38:16.882Z,83.93
2017-06-14T01:38:57.465Z,83.84
2017-06-14T01:39:38.118Z,83.84
2017-06-14T01:40:23.557Z,83.84
2017-06-14T01:41:04.143Z,83.65
2017-06-14T01:41:45.811Z,83.55
2017-06-14T01:42:26.444Z,83.65
2017-06-14T01:43:07.085Z,83.65
2017-06-14T01:43:47.745Z,83.74
2017-06-14T01:44:28.396Z,83.93
2017-06-14T01:45:09.075Z,84.03
2017-06-14T01:45:49.704Z,83.93
2017-06-14T01:46:32.297Z,83.93
2017-06-14T01:47:12.947Z,83.65
2017-06-14T01:47:53.532Z,83.65
2017-06-14T01:48:34.175Z,83.74
2017-06-14T01:49:14.860Z,83.84
2017-06-14T01:49:56.491Z,83.55
2017-06-14T01:50:37.062Z,83.84
2017-06-14T01:51:22.318Z,83.55
2017-06-14T01:52:02.911Z,83.84
2017-06-14T01:52:43.484Z,83.84
2017-06-14T01:53:24.083Z,83.84
2017-06-14T01:54:04.710Z,84.12
2017-06-14T01:54:45.289Z,83.74
2017-06-14T01:55:25.928Z,84.41
2017-06-14T01:56:06.556Z,84.12
2017-06-14T01:56:47.122Z,84.03
2017-06-14T01:57:28.714Z,84.03
2017-06-14T01:58:10.325Z,84.03
2017-06-14T01:58:50.914Z,84.12
2017-06-14T01:59:31.515Z,84.12
2017-06-14T02:00:13.187Z,84.22
2017-06-14T02:00:53.858Z,83.84
2017-06-14T02:01:35.475Z,83.74
2017-06-14T02:02:16.037Z,83.93
2017-06-14T02:02:56.706Z,83.93
2017-06-14T02:03:37.355Z,84.12
2017-06-14T02:04:18.000Z,84.12
2017-06-14T02:04:58.665Z,83.65
2017-06-14T02:05:41.261Z,83.84
2017-06-14T02:06:22.925Z,83.84
2017-06-14T02:07:04.613Z,84.5
2017-06-14T02:07:45.198Z,84.31
2017-06-14T02:08:25.790Z,84.5
2017-06-14T02:09:06.369Z,84.41
2017-06-14T02:09:47.015Z,84.41
2017-06-14T02:10:28.375Z,84.22
2017-06-14T02:11:10.052Z,84.5
2017-06-14T02:11:50.648Z,84.22
2017-06-14T02:12:31.254Z,84.5
2017-06-14T02:13:11.899Z,84.41
2017-06-14T02:13:52.475Z,84.22
2017-06-14T02:14:33.109Z,84.31
2017-06-14T02:15:13.791Z,84.22
2017-06-14T02:15:54.313Z,84.12
2017-06-14T02:16:34.991Z,84.12
2017-06-14T02:17:15.618Z,84.41
2017-06-14T02:17:56.199Z,84.5
2017-06-14T02:18:36.860Z,84.41
2017-06-14T02:19:22.450Z,84.36
2017-06-14T02:20:04.096Z,84.56
2017-06-14T02:20:46.688Z,84.27
2017-06-14T02:21:27.342Z,84.5
2017-06-14T02:22:07.996Z,84.17
2017-06-14T02:22:48.639Z,84.22
2017-06-14T02:23:29.307Z,84.22
2017-06-14T02:24:09.969Z,84.17
2017-06-14T02:24:50.612Z,84.31
2017-06-14T02:25:31.259Z,84.5
2017-06-14T02:26:16.823Z,84.46
2017-06-14T02:26:57.467Z,84.08
2017-06-14T02:27:38.139Z,83.98
2017-06-14T02:28:20.729Z,84.17
2017-06-14T02:29:01.385Z,84.36
2017-06-14T02:29:42.046Z,84.08
2017-06-14T02:30:22.689Z,84.46
2017-06-14T02:31:03.343Z,84.17
2017-06-14T02:31:44.007Z,84.08
2017-06-14T02:32:30.367Z,84.17
2017-06-14T02:33:11.992Z,84.17
2017-06-14T02:33:59.546Z,84.08
2017-06-14T02:34:40.124Z,84.17
2017-06-14T02:35:21.798Z,84.17
2017-06-14T02:36:02.389Z,84.84
2017-06-14T02:36:42.970Z,84.56
2017-06-14T02:37:23.593Z,84.27
2017-06-14T02:38:04.181Z,83.98
2017-06-14T02:38:44.758Z,84.17
2017-06-14T02:39:26.432Z,85.03
2017-06-14T02:40:07.005Z,84.84
2017-06-14T02:40:48.660Z,84.75
2017-06-14T02:41:29.242Z,84.94
2017-06-14T02:42:10.873Z,84.94
2017-06-14T02:42:51.439Z,84.75
2017-06-14T02:43:33.131Z,84.84
2017-06-14T02:44:13.808Z,84.94
2017-06-14T02:44:54.396Z,84.56
2017-06-14T02:45:34.985Z,84.84
2017-06-14T02:46:15.598Z,84.84
2017-06-14T02:46:56.213Z,84.84
2017-06-14T02:47:38.806Z,84.65
2017-06-14T02:48:19.466Z,84.46
2017-06-14T02:49:00.122Z,84.36
2017-06-14T02:49:40.830Z,84.46
2017-06-14T02:50:21.448Z,84.84
2017-06-14T02:51:02.066Z,84.84
2017-06-14T02:51:43.335Z,84.56
2017-06-14T02:52:24.005Z,84.36
2017-06-14T02:53:04.562Z,84.84
2017-06-14T02:53:45.174Z,84.84
2017-06-14T02:54:25.792Z,84.84
2017-06-14T02:55:06.358Z,84.36
2017-06-14T02:55:47.035Z,84.36
2017-06-14T02:56:27.646Z,84.84
2017-06-14T02:57:08.215Z,84.94
2017-06-14T02:57:50.817Z,84.65
2017-06-14T02:58:33.421Z,84.65
2017-06-14T02:59:14.051Z,84.65
2017-06-14T02:59:54.718Z,84.84
2017-06-14T03:00:36.396Z,84.65
2017-06-14T03:01:19.008Z,84.46
2017-06-14T03:02:01.609Z,84.65
2017-06-14T03:02:42.246Z,84.65
2017-06-14T03:03:22.898Z,84.75
2017-06-14T03:04:03.440Z,84.94
2017-06-14T03:04:46.049Z,84.46
2017-06-14T03:05:27.726Z,84.65
2017-06-14T03:06:08.289Z,84.94
2017-06-14T03:06:49.980Z,84.94
2017-06-14T03:07:31.631Z,84.75
2017-06-14T03:08:12.179Z,84.75
2017-06-14T03:08:52.854Z,84.94
2017-06-14T03:09:33.538Z,84.36
2017-06-14T03:10:20.068Z,84.65
2017-06-14T03:11:00.628Z,84.46
2017-06-14T03:11:41.275Z,84.75
2017-06-14T03:12:26.700Z,84.75
2017-06-14T03:13:12.099Z,84.65
2017-06-14T03:13:52.677Z,84.65
2017-06-14T03:14:33.322Z,84.65
2017-06-14T03:15:14.945Z,84.75
2017-06-14T03:15:55.633Z,84.36
2017-06-14T03:16:36.210Z,84.65
2017-06-14T03:17:16.845Z,84.46
2017-06-14T03:17:59.498Z,84.75
2017-06-14T03:18:41.178Z,84.75
2017-06-14T03:19:28.687Z,84.56
2017-06-14T03:20:09.354Z,84.65
2017-06-14T03:20:49.998Z,84.65
2017-06-14T03:21:32.594Z,84.65
2017-06-14T03:22:14.280Z,84.56
2017-06-14T03:22:55.897Z,84.56
2017-06-14T03:23:36.459Z,84.65
2017-06-14T03:24:18.133Z,85.03
2017-06-14T03:24:58.731Z,84.46
2017-06-14T03:25:39.312Z,84.36
2017-06-14T03:26:19.934Z,84.46
2017-06-14T03:27:02.592Z,84.46
2017-06-14T03:27:45.227Z,84.65
2017-06-14T03:28:30.702Z,84.75
2017-06-14T03:29:22.224Z,84.75
2017-06-14T03:30:02.867Z,84.65
2017-06-14T03:30:44.525Z,84.36
2017-06-14T03:31:25.185Z,84.94
2017-06-14T03:32:05.840Z,84.36
2017-06-14T03:32:46.422Z,84.75
2017-06-14T03:33:26.991Z,84.65
2017-06-14T03:34:18.382Z,84.75
2017-06-14T03:35:00.025Z,84.65
2017-06-14T03:35:42.659Z,84.56
2017-06-14T03:36:23.234Z,84.65
2017-06-14T03:37:04.916Z,84.65
2017-06-14T03:37:46.527Z,84.84
2017-06-14T03:38:33.058Z,84.84
2017-06-14T03:39:13.627Z,85.03
2017-06-14T03:39:54.293Z,84.56
2017-06-14T03:40:45.726Z,84.65
2017-06-14T03:41:26.320Z,84.65
2017-06-14T03:42:06.867Z,84.65
2017-06-14T03:42:47.549Z,85.03
2017-06-14T03:43:28.177Z,84.27
2017-06-14T03:44:13.336Z,84.56
2017-06-14T03:44:54.922Z,84.84
2017-06-14T03:45:37.508Z,84.36
2017-06-14T03:46:19.096Z,84.36
2017-06-14T03:46:59.770Z,84.65
2017-06-14T03:47:41.444Z,84.75
2017-06-14T03:48:23.110Z,84.94
2017-06-14T03:49:08.380Z,84.56
2017-06-14T03:49:50.064Z,84.65
2017-06-14T03:50:30.696Z,84.36
2017-06-14T03:51:15.864Z,84.46
2017-06-14T03:51:56.501Z,84.65
2017-06-14T03:52:43.936Z,84.65
2017-06-14T03:53:24.608Z,84.56
2017-06-14T03:54:06.253Z,84.46
2017-06-14T03:54:52.447Z,84.46
2017-06-14T03:55:33.093Z,84.46
2017-06-14T03:56:19.907Z,84.46
2017-06-14T03:57:00.531Z,84.46
2017-06-14T03:57:51.838Z,84.84
2017-06-14T03:58:32.423Z,84.56
2017-06-14T03:59:17.528Z,84.46
2017-06-14T03:59:58.097Z,84.27
2017-06-14T04:00:38.749Z,84.65
2017-06-14T04:01:20.371Z,84.75
2017-06-14T04:02:00.974Z,84.65
2017-06-14T04:02:41.534Z,84.65
2017-06-14T04:03:23.217Z,84.65
2017-06-14T04:04:04.822Z,84.56
2017-06-14T04:04:45.414Z,84.65
2017-06-14T04:05:25.985Z,84.46
2017-06-14T04:06:17.391Z,84.65
2017-06-14T04:06:57.975Z,84.75
2017-06-14T04:07:40.628Z,84.75
2017-06-14T04:08:22.298Z,84.65
2017-06-14T04:09:02.948Z,84.75
2017-06-14T04:09:43.603Z,84.65
2017-06-14T04:10:37.081Z,84.75
2017-06-14T04:11:22.631Z,84.75
2017-06-14T04:12:03.294Z,84.75
2017-06-14T04:12:43.872Z,84.65
2017-06-14T04:13:26.552Z,84.75
2017-06-14T04:14:07.229Z,84.65
2017-06-14T04:14:47.860Z,84.94
2017-06-14T04:15:30.465Z,84.65
2017-06-14T04:16:15.955Z,84.65
2017-06-14T04:16:58.617Z,84.65
2017-06-14T04:17:39.286Z,84.84
2017-06-14T04:18:25.712Z,84.27
2017-06-14T04:19:06.301Z,84.94
2017-06-14T04:19:46.856Z,84.88
2017-06-14T04:20:27.516Z,84.41
2017-06-14T04:21:19.674Z,84.6
2017-06-14T04:22:02.327Z,84.41
2017-06-14T04:22:42.881Z,84.46
2017-06-14T04:23:28.373Z,84.46
2017-06-14T04:24:09.013Z,84.5
2017-06-14T04:24:49.642Z,84.69
2017-06-14T04:25:30.329Z,84.69
2017-06-14T04:26:12.023Z,84.79
2017-06-14T04:26:52.625Z,84.69
2017-06-14T04:27:33.283Z,84.79
2017-06-14T04:28:14.974Z,84.88
2017-06-14T04:28:55.527Z,84.88
2017-06-14T04:29:36.179Z,84.98
2017-06-14T04:30:17.866Z,84.69
2017-06-14T04:30:58.425Z,84.5
2017-06-14T04:31:40.093Z,84.41
2017-06-14T04:32:22.783Z,84.31
2017-06-14T04:33:08.131Z,84.22
2017-06-14T04:33:59.533Z,84.41
2017-06-14T04:34:40.190Z,84.5
2017-06-14T04:35:25.552Z,84.69
2017-06-14T04:36:11.130Z,84.41
2017-06-14T04:36:57.606Z,84.03
2017-06-14T04:37:38.190Z,84.12
2017-06-14T04:38:18.832Z,84.03
2017-06-14T04:38:59.476Z,84.31
2017-06-14T04:39:40.080Z,84.22
2017-06-14T04:40:25.412Z,84.5
2017-06-14T06:12:44.255Z,79.88
2017-06-14T06:13:25.832Z,79.88
2017-06-14T06:14:06.387Z,79.69
2017-06-14T06:14:51.771Z,79.64
2017-06-14T06:15:33.431Z,79.54
2017-06-14T06:16:16.049Z,79.83
2017-06-14T06:16:56.635Z,79.73
2017-06-14T06:17:38.342Z,80.02
2017-06-14T06:18:18.945Z,79.44
2017-06-14T06:18:59.617Z,79.25
2017-06-14T06:19:40.283Z,79.35
2017-06-14T06:20:20.899Z,79.06
2017-06-14T06:21:01.494Z,79.25
2017-06-14T06:21:42.011Z,79.54
2017-06-14T06:22:24.600Z,79.35
2017-06-14T06:23:06.179Z,78.97
2017-06-14T06:23:47.750Z,79.06
2017-06-14T06:24:30.364Z,79.16
2017-06-14T06:25:10.909Z,79.16
2017-06-14T06:25:51.438Z,79.06
2017-06-14T06:26:38.959Z,78.97
2017-06-14T06:27:20.536Z,79.06
2017-06-14T06:28:01.106Z,79.06
2017-06-14T06:28:56.416Z,78.58
2017-06-14T06:29:36.934Z,78.78
2017-06-14T06:30:17.558Z,78.78
2017-06-14T06:30:59.160Z,78.49
2017-06-14T06:31:40.779Z,78.49
2017-06-14T06:32:21.297Z,78.39
2017-06-14T06:33:01.904Z,78.39
2017-06-14T06:33:44.547Z,78.49
2017-06-14T06:34:36.898Z,78.24
2017-06-14T06:35:17.419Z,78.43
2017-06-14T06:36:03.667Z,78.24
2017-06-14T06:36:44.262Z,78.72
2017-06-14T06:37:25.869Z,78.43
2017-06-14T06:38:06.378Z,78.53
2017-06-14T06:38:48.028Z,78.63
2017-06-14T06:39:29.583Z,78.53
2017-06-14T06:40:11.143Z,77.86
2017-06-14T06:40:56.732Z,78.43
2017-06-14T06:41:53.250Z,77.86
2017-06-14T06:42:35.867Z,78.05
2017-06-14T06:43:21.206Z,77.86
2017-06-14T06:44:01.768Z,77.67
2017-06-14T06:44:49.171Z,77.67
2017-06-14T06:45:29.734Z,77.76
2017-06-14T06:46:10.283Z,77.48
2017-06-14T06:46:52.881Z,77.48
2017-06-14T06:47:33.410Z,77.28
2017-06-14T06:48:15.008Z,77.28
2017-06-14T06:48:55.535Z,77.09
2017-06-14T06:49:36.106Z,77.09
2017-06-14T06:50:18.723Z,77.28
2017-06-14T06:50:59.232Z,77.28
2017-06-14T06:51:40.860Z,77.38
2017-06-14T06:52:21.476Z,77
2017-06-14T06:53:02.000Z,77.09
2017-06-14T06:53:53.476Z,76.62
2017-06-14T06:54:35.093Z,76.62
2017-06-14T06:55:15.621Z,76.62
2017-06-14T06:55:56.222Z,76.14
2017-06-14T06:56:43.476Z,76.14
2017-06-14T06:57:26.141Z,75.76
2017-06-14T06:58:06.673Z,75.76
2017-06-14T06:58:48.264Z,75.09
2017-06-14T06:59:39.538Z,75.22
2017-06-14T07:00:25.963Z,75.51
2017-06-14T07:01:06.492Z,75.41
2017-06-14T07:01:51.806Z,74.93
2017-06-14T07:02:32.493Z,74.93
2017-06-14T07:03:13.133Z,74.45
2017-06-14T07:03:53.737Z,74.74
2017-06-14T07:04:34.397Z,74.55
2017-06-14T07:05:25.527Z,74.07
2017-06-14T07:06:12.982Z,73.88
2017-06-14T07:06:53.512Z,73.97
2017-06-14T07:07:40.819Z,73.5
2017-06-14T07:08:21.466Z,73.5
2017-06-14T07:09:02.080Z,73.44
2017-06-14T07:09:42.719Z,73.24
2017-06-14T07:12:40.795Z,72.48
2017-06-14T07:13:28.350Z,72.67
2017-06-14T07:14:09.933Z,72.29
2017-06-14T07:14:52.541Z,72.58
2017-06-14T07:15:35.126Z,72.58
2017-06-14T07:16:20.309Z,72.58
2017-06-14T07:17:01.871Z,72.48
2017-06-14T07:17:53.396Z,72
2017-06-14T07:18:33.929Z,71.71
2017-06-14T07:19:15.516Z,71.81
2017-06-14T07:19:56.178Z,71.91
2017-06-14T07:20:37.752Z,72
2017-06-14T07:21:20.337Z,72.29
2017-06-14T07:22:07.848Z,71.71
2017-06-14T07:22:48.412Z,72.09
2017-06-14T07:23:28.937Z,71.62
2017-06-14T07:24:14.219Z,71.81
2017-06-14T07:24:55.897Z,71.91
2017-06-14T07:25:36.419Z,71.62
2017-06-14T07:26:17.011Z,71.42
2017-06-14T07:27:02.371Z,71.52
2017-06-14T07:27:42.907Z,71.52
2017-06-14T07:28:34.218Z,71.52
2017-06-14T07:29:15.712Z,71.42
2017-06-14T07:29:57.295Z,71.23
2017-06-14T07:30:50.691Z,70.95
2017-06-14T07:31:36.188Z,70.85
2017-06-14T07:32:22.704Z,70.98
2017-06-14T07:33:04.363Z,71.04
2017-06-14T07:58:43.389Z,70.21
2017-06-14T07:59:23.974Z,69.74
2017-06-14T08:00:06.520Z,70.21
2017-06-14T08:00:52.949Z,70.03
2017-06-14T08:01:33.473Z,70.21
2017-06-14T08:02:15.120Z,69.83
2017-06-14T08:02:56.713Z,70.03
2017-06-14T08:03:37.301Z,69.93
2017-06-14T08:04:17.894Z,69.93
2017-06-14T08:05:03.677Z,69.83
2017-06-14T08:05:44.277Z,69.74
2017-06-14T08:06:24.829Z,69.64
2017-06-14T08:07:05.381Z,69.83
2017-06-14T08:07:45.937Z,69.45
2017-06-14T08:08:26.507Z,69.64
2017-06-14T08:09:08.144Z,69.54
2017-06-14T08:09:48.669Z,68.97
2017-06-14T08:10:31.202Z,69.26
2017-06-14T08:11:12.030Z,68.87
2017-06-14T08:11:52.649Z,68.68
2017-06-14T08:12:33.248Z,68.4
2017-06-14T08:13:13.752Z,68.4
2017-06-14T08:13:54.390Z,68.3
2017-06-14T08:14:34.976Z,68.3
2017-06-14T08:15:15.567Z,68.4
2017-06-14T08:15:56.106Z,68.78
2017-06-14T08:16:37.720Z,68.4
2017-06-14T08:17:25.066Z,68.59
2017-06-14T08:18:06.689Z,68.3
2017-06-14T08:18:47.249Z,68.4
2017-06-14T08:19:28.817Z,68.21
2017-06-14T08:20:09.367Z,67.91
2017-06-14T08:20:51.976Z,68.11
2017-06-14T08:21:32.539Z,68.33
2017-06-14T08:22:15.166Z,68.43
2017-06-14T08:22:56.747Z,68.43
2017-06-14T08:23:37.391Z,68.72
2017-06-14T08:24:17.965Z,68.52
2017-06-14T08:25:00.535Z,68.62
2017-06-14T08:25:46.113Z,68.52
2017-06-14T08:26:27.684Z,68.43
2017-06-14T08:27:09.261Z,68.62
2017-06-14T08:27:49.790Z,68.81
2017-06-14T08:28:31.352Z,68.43
2017-06-14T08:29:16.807Z,68.43
2017-06-14T08:29:58.377Z,68.24
2017-06-14T08:30:38.997Z,68.14
2017-06-14T08:31:19.593Z,68.14
2017-06-14T08:32:00.260Z,67.95
2017-06-14T08:32:40.883Z,67.85
2017-06-14T08:33:22.497Z,67.76
2017-06-14T08:34:07.771Z,67.66
2017-06-14T08:34:50.535Z,67.66
2017-06-14T08:35:31.172Z,67.85
2017-06-14T08:36:13.814Z,67.76
2017-06-14T08:36:54.459Z,67.85
2017-06-14T08:37:45.703Z,67.38
2017-06-14T08:38:26.292Z,67.28
2017-06-14T08:39:12.864Z,67.18
2017-06-14T08:39:53.700Z,67.38
2017-06-14T08:40:34.484Z,67.28
2017-06-14T08:41:19.890Z,67.28
2017-06-14T08:42:01.641Z,67.18
2017-06-14T08:42:42.397Z,67.12
2017-06-14T08:43:23.068Z,67.12
2017-06-14T08:44:08.603Z,66.64
2017-06-14T08:44:51.308Z,66.83
2017-06-14T08:45:31.875Z,67.02
2017-06-14T08:46:18.269Z,66.93
2017-06-14T08:47:03.606Z,66.83
2017-06-14T08:47:48.978Z,67.02
2017-06-14T08:48:29.587Z,66.35
2017-06-14T08:55:53.155Z,65.49
2017-06-14T08:56:33.729Z,65.2
2017-06-14T08:57:15.400Z,65.59
2017-06-14T08:57:56.055Z,65.49
2017-06-14T08:58:36.659Z,65.33
2017-06-14T08:59:28.172Z,64.66
2017-06-14T09:00:09.818Z,64.95
2017-06-14T10:24:58.415Z,51.19
2017-06-14T10:25:38.994Z,50.99
2017-06-14T10:26:19.573Z,50.81
2017-06-14T10:27:00.193Z,50.81
2017-06-14T10:27:40.841Z,50.23
2017-06-14T10:28:21.494Z,50.23
2017-06-14T10:29:02.069Z,50.42
2017-06-14T10:29:42.673Z,50.23
2017-06-14T10:30:23.253Z,50.04
2017-06-14T10:31:03.875Z,50.42
2017-06-14T10:31:44.454Z,50.83
2017-06-14T10:32:25.038Z,50.35
2017-06-14T10:33:05.684Z,50.45
2017-06-14T10:33:46.270Z,49.96
2017-06-14T10:34:26.964Z,49.87
2017-06-14T10:35:07.612Z,49.58
2017-06-14T10:35:48.251Z,49.58
2017-06-14T10:36:28.922Z,49.77
2017-06-14T10:37:09.504Z,49.48
2017-06-14T10:37:50.181Z,49.77
2017-06-14T10:38:31.781Z,49.58
2017-06-14T10:39:12.364Z,49.58
2017-06-14T10:39:52.931Z,49.38
2017-06-14T10:40:33.555Z,49.19
2017-06-14T10:41:14.195Z,49.77
2017-06-14T10:41:54.766Z,49.7
2017-06-14T10:42:35.401Z,49.22
2017-06-14T10:43:16.068Z,49.22
2017-06-14T10:43:56.735Z,48.93
2017-06-14T10:44:37.390Z,48.74
2017-06-14T10:45:20.759Z,48.93
2017-06-14T10:46:16.028Z,48.16
2017-06-14T10:47:01.524Z,47.97
2017-06-14T10:47:42.172Z,47.97
2017-06-14T11:11:27.759Z,44.25
2017-06-14T11:12:08.320Z,44.25
2017-06-14T11:12:54.904Z,43.94
2017-06-14T11:13:35.566Z,44.04
2017-06-14T11:14:16.194Z,43.85
2017-06-14T11:15:11.375Z,43.85
2017-06-14T11:15:57.866Z,43.75
2017-06-14T11:16:38.541Z,43.37
2017-06-14T11:17:24.904Z,43.17
2017-06-14T11:18:20.403Z,43.07
2017-06-14T11:19:05.860Z,43.37
2017-06-14T11:19:59.412Z,42.88
2017-06-14T11:20:45.907Z,42.59
2017-06-14T11:21:28.533Z,42.8
2017-06-14T11:33:54.196Z,42.61
2017-06-14T11:34:34.771Z,42.71
2017-06-14T12:21:24.883Z,40.26
2017-06-14T12:22:16.454Z,40.26
2017-06-14T12:23:01.628Z,39.97
2017-06-14T12:23:48.137Z,40.26
2017-06-14T12:24:30.793Z,40.36
2017-06-14T12:57:25.506Z,37.87
2017-06-14T12:58:07.072Z,37.77
2017-06-14T12:58:48.680Z,37.67
2017-06-14T12:59:29.269Z,37.58
2017-06-14T13:00:14.432Z,37.67
2017-06-14T13:01:07.645Z,37.77
2017-06-14T13:01:48.235Z,37.77
2017-06-14T13:02:34.392Z,37.58
2017-06-14T13:03:15.031Z,37.48
2017-06-14T13:03:55.704Z,37.48
2017-06-14T13:04:36.359Z,37.67
2017-06-14T13:05:23.884Z,37.19
2017-06-14T13:06:04.521Z,37.58
2017-06-14T13:06:48.858Z,37.5
2017-06-14T13:07:45.080Z,37.6
2017-06-14T13:08:25.773Z,37.7
2017-06-14T13:09:20.939Z,37.7
2017-06-14T13:10:01.619Z,37.4
2017-06-14T13:10:44.257Z,37.9
2017-06-14T13:11:25.763Z,37.52
2017-06-14T13:12:11.932Z,37.52
2017-06-14T13:12:52.523Z,37.42
2017-06-14T13:13:40.091Z,37.52
2017-06-14T13:14:20.662Z,37.42
2017-06-14T13:15:06.946Z,37.42
2017-06-14T13:15:48.552Z,37.92
2017-06-14T13:49:33.515Z,36.16
2017-06-14T13:50:14.115Z,36.65
2017-06-14T13:50:55.695Z,36.26
2017-06-14T13:51:48.099Z,36.55
2017-06-14T13:52:29.704Z,36.46
2017-06-14T13:53:11.306Z,36.07
2017-06-14T13:54:04.602Z,35.88
2017-06-14T13:54:47.204Z,35.68
2017-06-14T13:55:39.592Z,35.78
2017-06-14T13:56:21.167Z,35.8
2017-06-14T13:57:02.754Z,35.6
2017-06-14T14:00:49.193Z,34.83
2017-06-14T14:01:30.800Z,34.92
2017-06-14T14:02:23.370Z,34.92
2017-06-14T14:03:05.961Z,34.92
2017-06-14T14:03:48.554Z,35.12
2017-06-14T14:04:31.120Z,34.91
2017-06-14T14:05:12.712Z,34.62
2017-06-14T14:05:57.907Z,34.71
2017-06-14T14:06:50.376Z,34.71
2017-06-14T14:07:30.973Z,34.71
2017-06-14T14:08:11.584Z,34.81
2017-06-14T14:08:52.151Z,34.71
2017-06-14T14:09:34.757Z,34.81
2017-06-14T14:10:30.871Z,34.91
2017-06-14T14:11:13.439Z,34.81
2017-06-14T14:11:56.007Z,35
2017-06-14T14:12:37.579Z,34.7
2017-06-14T14:13:22.872Z,34.71
2017-06-14T14:14:03.451Z,34.6
2017-06-14T14:14:45.031Z,34.81
2017-06-14T14:15:25.606Z,34.71
2017-06-14T14:16:06.174Z,34.42
2017-06-14T14:16:47.762Z,34.71
2017-06-14T14:17:34.888Z,34.52
2017-06-14T14:18:15.443Z,34.62
2017-06-14T14:19:01.884Z,34.92
2017-06-14T14:19:47.378Z,34.83
2017-06-14T14:20:28.950Z,34.73
2017-06-14T14:21:15.381Z,34.73
2017-06-14T14:21:55.939Z,34.44
2017-06-14T14:22:47.370Z,34.27
2017-06-14T14:23:27.946Z,34.45
2017-06-14T14:24:14.372Z,34.17
2017-06-14T14:25:07.902Z,34.27
2017-06-14T14:25:50.475Z,34.27
2017-06-14T14:26:31.042Z,33.97
2017-06-14T14:27:11.641Z,34.07
2017-06-14T14:27:53.217Z,34.09
2017-06-14T14:28:35.801Z,33.7
2017-06-14T14:29:22.373Z,33.7
2017-06-14T14:30:08.570Z,33.87
2017-06-14T14:30:49.114Z,33.49
2017-06-14T14:31:34.389Z,33.6
2017-06-14T14:32:14.947Z,33.8
2017-06-14T14:32:55.510Z,33.89
2017-06-14T14:33:40.885Z,34.19
2017-06-14T14:34:27.067Z,34.09
2017-06-14T14:35:18.565Z,34.09
2017-06-14T14:36:10.072Z,34.38
2017-06-14T14:36:51.641Z,34.19
2017-06-14T14:37:32.210Z,34.38
2017-06-14T14:38:19.572Z,34.19
2017-06-14T14:39:05.063Z,34.28
2017-06-14T14:39:45.644Z,34.47
2017-06-14T14:40:26.229Z,34.57
2017-06-14T14:41:17.721Z,34.57
2017-06-14T14:41:59.299Z,34.47
2017-06-14T14:42:39.871Z,34.47
2017-06-14T14:43:31.379Z,34.57
2017-06-14T14:44:16.680Z,34.47
2017-06-14T14:44:59.256Z,34.28
2017-06-14T14:45:39.827Z,34.38
2017-06-14T14:46:22.413Z,34.19
2017-06-14T14:47:07.701Z,34.19
2017-06-14T14:47:48.287Z,34.19
2017-06-14T14:48:28.876Z,34.09
2017-06-14T14:49:15.405Z,33.6
2017-06-14T14:49:55.990Z,33.7
2017-06-14T14:50:36.562Z,33.39
2017-06-14T14:51:18.141Z,33.49
2017-06-14T14:51:59.720Z,33.29
2017-06-14T14:52:40.301Z,33.69
2017-06-14T14:53:25.412Z,33.39
2017-06-14T14:54:06.990Z,33.29
2017-06-14T14:54:47.567Z,33.87
2017-06-14T14:55:38.939Z,33.97
2017-06-14T14:56:26.384Z,33.87
2017-06-14T14:57:07.958Z,33.69
2017-06-14T14:57:49.533Z,33.78
2017-06-14T14:58:30.198Z,33.87
2017-06-14T14:59:10.769Z,33.87
2017-06-14T14:59:55.909Z,33.69
2017-06-14T15:00:36.491Z,33.78
2017-06-14T15:01:17.062Z,33.7
2017-06-14T15:01:57.643Z,33.22
2017-06-14T15:02:43.011Z,33.02
2017-06-14T15:03:25.587Z,32.71
2017-06-14T15:04:16.907Z,32.33
2017-06-14T15:04:58.501Z,32.62
2017-06-14T15:05:41.126Z,31.94
2017-06-14T15:06:22.739Z,31.94
2017-06-14T15:07:08.914Z,31.84